Time;durP1;ratioP1;P1;durP2;ratioP2;P2;SDS_P1;SDS_P2;PMS_P1;PMS_P2;Temp;Humidity;BMP_temperature;BMP_pressure;BME280_temperature;BME280_humidity;BME280_pressure;Samples;Min_cycle;Max_cycle;Signal;HPM_P1;HPM_P2
2022/05/29 00:00:46;;;;;;;3.63;0.20;;;;;;;13.79;53.02;101791.88;7394240;19;20017;-66
2022/05/29 00:03:13;;;;;;;1.08;0.10;;;;;;;13.76;53.24;101789.53;7393524;19;20021;-67
2022/05/29 00:05:41;;;;;;;1.95;0.10;;;;;;;13.74;53.52;101794.13;7393481;19;20015;-68
2022/05/29 00:08:11;;;;;;;1.60;0.10;;;;;;;13.75;53.67;101782.59;7392711;19;20508;-69
2022/05/29 00:10:41;;;;;;;0.47;0.00;;;;;;;13.71;53.90;101782.03;7394222;19;20061;-67
2022/05/29 00:13:11;;;;;;;1.65;0.10;;;;;;;13.68;54.23;101782.34;7394083;19;20456;-69
2022/05/29 00:15:39;;;;;;;0.43;0.10;;;;;;;13.65;54.41;101781.81;7395287;19;20114;-68
2022/05/29 00:18:07;;;;;;;2.30;0.20;;;;;;;13.63;54.75;101781.97;7392893;19;20447;-65
2022/05/29 00:20:35;;;;;;;3.00;0.10;;;;;;;13.62;54.65;101771.53;7393055;19;20344;-68
2022/05/29 00:23:03;;;;;;;2.85;0.20;;;;;;;13.56;55.17;101772.13;7393026;19;20010;-68
2022/05/29 00:25:31;;;;;;;0.47;0.10;;;;;;;13.54;55.51;101772.28;7394222;19;20082;-66
2022/05/29 00:27:58;;;;;;;0.85;0.10;;;;;;;13.55;55.82;101781.03;7391016;19;20010;-68
2022/05/29 00:30:25;;;;;;;1.50;0.10;;;;;;;13.53;56.39;101781.19;7392000;19;20006;-65
2022/05/29 00:32:52;;;;;;;2.90;0.20;;;;;;;13.54;56.58;101782.03;7394462;19;20527;-68
2022/05/29 00:35:19;;;;;;;2.67;0.10;;;;;;;13.49;57.03;101779.00;7393088;19;20007;-67
2022/05/29 00:37:47;;;;;;;2.20;0.10;;;;;;;13.49;57.08;101771.88;7393425;19;20025;-66
2022/05/29 00:40:32;;;;;;;2.50;0.25;;;;;;;13.45;57.02;101772.34;7390841;19;20032;-67
2022/05/29 00:42:59;;;;;;;5.78;0.40;;;;;;;13.40;57.24;101772.78;7391239;19;20479;-68
2022/05/29 00:45:31;;;;;;;0.57;0.08;;;;;;;13.36;57.71;101768.75;7391605;19;20019;-68
2022/05/29 00:48:04;;;;;;;2.08;0.20;;;;;;;13.33;57.80;101766.41;7391222;19;20464;-67
2022/05/29 00:50:31;;;;;;;1.85;0.20;;;;;;;13.29;57.65;101762.41;7393645;19;20360;-66
2022/05/29 00:52:58;;;;;;;3.80;0.20;;;;;;;13.34;57.87;101769.88;7393158;19;20110;-67
2022/05/29 00:55:29;;;;;;;1.65;0.10;;;;;;;13.39;57.68;101762.34;7393981;19;20012;-67
2022/05/29 00:58:02;;;;;;;2.20;0.10;;;;;;;13.31;57.71;101768.34;7392442;19;20025;-68
2022/05/29 01:00:30;;;;;;;0.20;0.10;;;;;;;13.23;58.04;101766.47;7392616;19;20026;-67
2022/05/29 01:03:00;;;;;;;5.35;0.20;;;;;;;13.15;58.17;101763.72;7388814;19;20018;-66
2022/05/29 01:05:32;;;;;;;1.27;0.10;;;;;;;13.11;58.46;101767.63;7391467;19;20017;-68
2022/05/29 01:08:28;;;;;;;1.25;0.75;;;;;;;13.15;58.34;101755.81;7390984;19;20020;-69
2022/05/29 01:11:16;;;;;;;2.35;0.20;;;;;;;13.11;58.60;101764.13;7390928;19;20398;-69
2022/05/29 01:14:08;;;;;;;6.90;2.08;;;;;;;13.08;59.07;101759.13;7389022;19;20022;-68
2022/05/29 01:16:35;;;;;;;1.27;0.20;;;;;;;13.04;58.99;101752.47;7390955;19;20011;-68
2022/05/29 01:19:17;;;;;;;1.05;0.20;;;;;;;13.01;58.95;101747.47;7390356;19;20035;-66
2022/05/29 01:22:16;;;;;;;5.38;0.28;;;;;;;12.98;58.61;101750.41;7391099;19;20470;-68
2022/05/29 01:24:58;;;;;;;1.30;0.10;;;;;;;12.95;58.98;101761.28;7387588;19;20048;-66
2022/05/29 01:27:44;;;;;;;4.80;0.20;;;;;;;12.93;59.04;101764.06;7392670;19;20009;-66
2022/05/29 01:30:14;;;;;;;1.95;0.20;;;;;;;12.94;59.49;101762.25;7392354;19;20007;-67
2022/05/29 01:33:12;;;;;;;1.27;0.10;;;;;;;12.97;59.58;101756.66;7391946;19;20018;-67
2022/05/29 01:35:54;;;;;;;2.65;0.10;;;;;;;13.01;59.38;101760.69;7390488;19;20030;-67
2022/05/29 01:38:31;;;;;;;1.63;0.20;;;;;;;13.00;59.45;101759.03;7389744;19;20015;-66
2022/05/29 01:41:07;;;;;;;1.42;0.20;;;;;;;12.98;59.61;101755.69;7391260;19;20021;-67
2022/05/29 01:43:50;;;;;;;1.15;0.13;;;;;;;12.98;59.54;101763.63;7392512;19;20017;-69
2022/05/29 01:46:27;;;;;;;;;;;;;;;12.91;59.60;101760.72;7389896;19;20021;-69
2022/05/29 01:49:18;;;;;;;1.98;0.10;;;;;;;12.83;60.33;101757.97;7391021;19;19917;-66
2022/05/29 01:51:56;;;;;;;1.73;0.20;;;;;;;12.79;60.68;101762.72;7389378;19;20530;-66
2022/05/29 01:54:30;;;;;;;6.15;0.47;;;;;;;12.75;60.80;101761.31;7391222;19;20473;-67
2022/05/29 01:57:05;;;;;;;1.35;0.10;;;;;;;12.71;61.18;101757.31;7388709;19;20352;-69
2022/05/29 01:59:48;;;;;;;3.03;0.50;;;;;;;12.75;61.00;101760.50;7389370;19;20017;-66
2022/05/29 02:02:20;;;;;;;1.73;0.25;;;;;;;12.71;60.85;101765.25;7390186;19;20020;-66
2022/05/29 02:04:52;;;;;;;3.45;0.28;;;;;;;12.69;61.27;101763.72;7390156;19;20006;-68
2022/05/29 02:10:34;;;;;;;6.18;0.20;;;;;;;12.66;61.44;101754.28;7389324;19;20093;-67
2022/05/29 02:13:08;;;;;;;2.00;0.20;;;;;;;12.61;61.62;101748.59;7390742;19;20571;-68
2022/05/29 02:15:48;;;;;;;2.65;0.10;;;;;;;12.55;61.86;101745.69;7390026;19;20722;-67
2022/05/29 02:18:35;;;;;;;1.65;0.20;;;;;;;12.43;62.38;101739.75;7390510;19;20070;-67
2022/05/29 02:21:11;;;;;;;1.48;0.10;;;;;;;12.36;62.52;101739.47;7390417;19;20006;-67
2022/05/29 02:23:44;;;;;;;2.13;0.20;;;;;;;12.35;62.91;101734.34;7390330;19;20058;-66
2022/05/29 02:26:17;;;;;;;4.72;0.20;;;;;;;12.37;62.73;101735.03;7390033;19;20014;-67
2022/05/29 02:29:03;;;;;;;3.53;0.30;;;;;;;12.32;63.03;101730.19;7390917;19;20017;-67
2022/05/29 02:31:52;;;;;;;2.03;0.20;;;;;;;12.33;62.84;101728.38;7388761;19;20010;-67
2022/05/29 02:34:52;;;;;;;2.85;0.20;;;;;;;12.26;62.89;101730.75;7398653;19;20032;-67
2022/05/29 02:37:24;;;;;;;2.17;0.10;;;;;;;12.23;63.75;101728.41;7395383;19;20556;-68
2022/05/29 02:40:05;;;;;;;2.00;0.20;;;;;;;12.23;62.90;101722.28;7397815;19;20017;-67
2022/05/29 02:43:13;;;;;;;1.65;0.20;;;;;;;12.23;63.17;101725.75;7394010;19;20033;-67
2022/05/29 02:45:50;;;;;;;1.10;0.20;;;;;;;12.20;63.11;101718.13;7391287;19;20014;-67
2022/05/29 02:48:25;;;;;;;7.38;0.43;;;;;;;12.23;63.10;101719.66;7394910;19;20385;-68
2022/05/29 02:51:24;;;;;;;4.07;0.20;;;;;;;12.25;63.24;101718.53;7394743;19;20007;-67
2022/05/29 02:53:51;;;;;;;2.90;0.90;;;;;;;12.23;63.28;101720.50;7396789;19;20003;-68
2022/05/29 02:56:18;;;;;;;2.20;0.20;;;;;;;12.20;63.25;101714.63;7395355;19;20118;-67
2022/05/29 02:58:50;;;;;;;4.28;0.20;;;;;;;12.16;63.52;101710.63;7396735;19;20073;-68
2022/05/29 03:01:48;;;;;;;8.50;0.30;;;;;;;12.13;63.52;101708.28;7392782;19;20419;-67
2022/05/29 03:04:24;;;;;;;;;;;;;;;12.16;63.70;101708.81;7398863;19;20017;-67
2022/05/29 03:06:57;;;;;;;3.88;0.20;;;;;;;12.07;63.70;101707.03;7395938;19;20640;-67
2022/05/29 03:09:57;;;;;;;1.50;0.20;;;;;;;12.06;63.96;101704.53;7396351;19;20126;-67
2022/05/29 03:12:35;;;;;;;2.83;0.30;;;;;;;12.07;63.56;101703.56;7390949;19;20018;-67
2022/05/29 03:15:46;;;;;;;2.03;0.15;;;;;;;12.08;63.52;101697.31;7397797;19;20364;-67
2022/05/29 03:19:08;;;;;;;2.72;0.30;;;;;;;12.09;63.64;101702.44;7393290;19;20022;-67
2022/05/29 03:22:05;;;;;;;2.20;0.28;;;;;;;12.05;63.86;101701.06;7392014;19;20496;-67
2022/05/29 03:24:51;;;;;;;3.25;0.30;;;;;;;12.05;64.02;101692.31;7398018;19;20038;-68
2022/05/29 03:27:35;;;;;;;3.30;0.30;;;;;;;12.04;64.02;101688.03;7395922;19;20021;-68
2022/05/29 03:30:08;;;;;;;2.63;0.32;;;;;;;11.96;64.61;101689.56;7393576;19;20461;-67
2022/05/29 03:32:36;;;;;;;3.47;0.30;;;;;;;11.90;64.86;101689.28;7393225;19;20014;-66
2022/05/29 03:35:16;;;;;;;3.72;0.30;;;;;;;11.91;65.04;101680.38;7397767;19;20048;-66
2022/05/29 03:37:44;;;;;;;2.15;0.30;;;;;;;11.83;65.27;101685.53;7392467;19;20017;-69
2022/05/29 03:40:12;;;;;;;1.63;0.30;;;;;;;11.78;65.59;101679.84;7392748;19;20007;-66
2022/05/29 03:42:39;;;;;;;5.13;0.38;;;;;;;11.72;66.29;101675.09;7394171;19;20378;-66
2022/05/29 03:45:08;;;;;;;4.15;0.38;;;;;;;11.75;66.02;101670.41;7392933;19;20013;-67
2022/05/29 03:47:36;;;;;;;0.93;0.43;;;;;;;11.75;66.26;101675.69;7396510;19;20340;-67
2022/05/29 03:50:06;;;;;;;2.40;0.40;;;;;;;11.72;66.08;101672.47;7391209;19;20026;-67
2022/05/29 03:52:34;;;;;;;1.92;0.30;;;;;;;11.72;66.35;101665.41;7395270;19;20010;-67
2022/05/29 03:55:03;;;;;;;2.40;0.40;;;;;;;11.77;66.32;101665.00;7393748;19;20022;-68
2022/05/29 03:57:30;;;;;;;3.60;0.38;;;;;;;11.80;66.09;101665.53;7395823;19;20348;-67
2022/05/29 03:59:56;;;;;;;4.00;0.30;;;;;;;11.84;66.19;101663.47;7393834;19;20500;-69
2022/05/29 04:02:23;;;;;;;3.25;0.30;;;;;;;11.86;66.28;101656.25;7393209;19;20487;-67
2022/05/29 04:04:50;;;;;;;3.58;0.40;;;;;;;11.83;66.14;101657.38;7396653;19;20682;-67
2022/05/29 04:07:17;;;;;;;3.53;0.30;;;;;;;11.82;66.55;101660.97;7392611;19;20015;-68
2022/05/29 04:12:29;;;;;;;2.38;0.20;;;;;;;11.82;66.28;101654.88;7393309;19;20015;-66
2022/05/29 04:15:00;;;;;;;3.08;0.30;;;;;;;11.76;66.41;101656.25;7390530;19;20523;-67
2022/05/29 04:17:26;;;;;;;1.80;0.25;;;;;;;11.75;66.05;101657.22;7394221;19;20013;-66
2022/05/29 04:19:53;;;;;;;2.60;0.20;;;;;;;11.73;66.55;101667.09;7392547;19;20003;-71
2022/05/29 04:22:22;;;;;;;2.03;0.30;;;;;;;11.72;66.56;101660.13;7393433;19;20026;-67
2022/05/29 04:24:49;;;;;;;2.03;0.20;;;;;;;11.67;66.06;101662.34;7395074;19;20019;-67
2022/05/29 04:27:16;;;;;;;4.03;0.50;;;;;;;11.64;66.61;101659.13;7393382;19;20110;-68
2022/05/29 04:29:43;;;;;;;3.40;0.73;;;;;;;11.65;66.40;101658.16;7391397;19;20127;-68
2022/05/29 04:34:56;;;;;;;3.45;0.20;;;;;;;11.62;67.05;101661.09;7393165;19;20007;-67
2022/05/29 04:37:26;;;;;;;3.63;0.60;;;;;;;11.62;67.16;101658.47;7394465;19;20647;-68
2022/05/29 04:39:53;;;;;;;3.33;0.30;;;;;;;11.59;67.31;101656.91;7393256;19;20022;-66
2022/05/29 04:42:20;;;;;;;1.95;0.30;;;;;;;11.57;67.40;101656.25;7390392;19;20082;-68
2022/05/29 04:44:47;;;;;;;0.95;0.28;;;;;;;11.54;67.36;101651.22;7389550;19;20622;-68
2022/05/29 04:47:13;;;;;;;2.17;0.25;;;;;;;11.52;67.64;101648.75;7390540;19;20020;-67
2022/05/29 04:49:40;;;;;;;1.17;0.20;;;;;;;11.52;68.03;101645.28;7393514;19;20006;-70
2022/05/29 04:52:09;;;;;;;2.47;0.30;;;;;;;11.51;67.84;101651.53;7392113;19;20021;-68
2022/05/29 04:54:38;;;;;;;2.20;0.20;;;;;;;11.50;67.37;101637.50;7389816;19;20346;-64
2022/05/29 04:57:09;;;;;;;2.35;0.30;;;;;;;11.50;67.55;101634.88;7393182;19;20086;-67
2022/05/29 04:59:37;;;;;;;3.40;0.25;;;;;;;11.51;67.38;101640.97;7393777;19;20337;-65
2022/05/29 05:02:05;;;;;;;0.57;0.20;;;;;;;11.54;67.71;101638.88;7392426;19;20097;-69
2022/05/29 05:04:32;;;;;;;0.77;0.30;;;;;;;11.54;67.76;101632.78;7393578;19;20513;-67
2022/05/29 05:06:59;;;;;;;3.70;0.40;;;;;;;11.53;67.37;101637.22;7392057;19;20086;-66
2022/05/29 05:09:28;;;;;;;3.55;0.20;;;;;;;11.53;67.51;101639.84;7394196;19;20013;-68
2022/05/29 05:11:58;;;;;;;5.50;0.35;;;;;;;11.51;67.53;101633.91;7392998;19;20688;-68
2022/05/29 05:14:27;;;;;;;1.85;0.30;;;;;;;11.53;67.33;101641.66;7392222;19;20011;-68
2022/05/29 05:16:54;;;;;;;3.75;0.30;;;;;;;11.54;67.52;101640.69;7393242;19;20032;-68
2022/05/29 05:19:22;;;;;;;5.13;0.45;;;;;;;11.56;67.57;101636.97;7392501;19;20599;-68
2022/05/29 05:21:53;;;;;;;2.30;0.63;;;;;;;11.63;67.51;101628.50;7392786;19;20013;-67
2022/05/29 05:24:21;;;;;;;1.13;0.20;;;;;;;11.68;67.20;101628.91;7391780;19;20011;-67
2022/05/29 05:26:48;;;;;;;3.50;0.30;;;;;;;11.69;66.76;101626.13;7390478;19;20010;-66
2022/05/29 05:29:15;;;;;;;2.15;0.20;;;;;;;11.72;66.56;101619.75;7392028;19;20011;-68
2022/05/29 05:31:57;;;;;;;6.10;0.30;;;;;;;11.77;66.06;101626.28;7389168;19;20014;-67
2022/05/29 05:34:24;;;;;;;5.17;0.20;;;;;;;11.70;66.09;101619.88;7390202;19;20038;-68
2022/05/29 05:36:51;;;;;;;3.83;0.30;;;;;;;11.61;66.37;101615.44;7393235;19;20396;-66
2022/05/29 05:39:20;;;;;;;2.03;0.28;;;;;;;11.58;66.44;101618.34;7391570;19;20021;-66
2022/05/29 05:42:02;;;;;;;2.25;0.25;;;;;;;11.61;66.93;101611.97;7392161;19;20015;-67
2022/05/29 05:44:29;;;;;;;3.13;0.20;;;;;;;11.65;66.94;101621.25;7387362;19;20013;-66
2022/05/29 05:46:56;;;;;;;3.22;0.20;;;;;;;11.72;66.10;101617.94;7389397;19;20468;-67
2022/05/29 05:49:27;;;;;;;1.73;0.20;;;;;;;11.77;66.30;101620.19;7392023;19;20096;-66
2022/05/29 05:51:59;;;;;;;2.80;0.28;;;;;;;11.82;66.40;101621.44;7389617;19;20014;-66
2022/05/29 05:54:30;;;;;;;4.38;0.70;;;;;;;11.89;65.92;101613.75;7389962;19;20734;-67
2022/05/29 05:56:57;;;;;;;2.22;0.20;;;;;;;11.96;65.25;101620.97;7388299;19;20014;-68
2022/05/29 05:59:24;;;;;;;2.05;0.20;;;;;;;12.05;63.92;101615.81;7391710;19;20019;-67
2022/05/29 06:02:02;;;;;;;2.85;0.17;;;;;;;12.07;64.32;101619.97;7391676;19;20070;-66
2022/05/29 06:04:29;;;;;;;2.53;0.22;;;;;;;12.09;63.93;101611.94;7389789;19;20031;-66
2022/05/29 06:06:56;;;;;;;1.77;0.10;;;;;;;12.14;64.19;101613.16;7390470;19;20011;-67
2022/05/29 06:09:23;;;;;;;1.65;0.20;;;;;;;12.18;64.44;101619.81;7389862;19;20010;-67
2022/05/29 06:11:57;;;;;;;2.70;0.20;;;;;;;12.27;64.46;101623.41;7391965;19;20014;-68
2022/05/29 06:14:24;;;;;;;1.52;0.22;;;;;;;12.39;63.51;101616.97;7386065;19;20044;-68
2022/05/29 06:16:51;;;;;;;3.30;0.20;;;;;;;12.51;64.96;101618.44;7389700;19;20089;-67
2022/05/29 06:19:19;;;;;;;1.42;0.20;;;;;;;12.57;63.88;101624.94;7387885;19;20047;-66
2022/05/29 06:22:02;;;;;;;3.30;0.17;;;;;;;12.65;62.51;101615.31;7390840;19;20020;-66
2022/05/29 06:24:29;;;;;;;7.35;0.15;;;;;;;12.67;62.10;101623.91;7387021;19;20021;-68
2022/05/29 06:26:58;;;;;;;2.38;0.20;;;;;;;12.69;62.41;101619.34;7389821;19;20007;-67
2022/05/29 06:29:25;;;;;;;1.55;0.20;;;;;;;12.72;62.51;101616.38;7388579;19;20019;-69
2022/05/29 06:32:15;;;;;;;2.78;0.13;;;;;;;12.76;62.53;101617.75;7387134;19;20023;-68
2022/05/29 06:34:42;;;;;;;2.15;0.20;;;;;;;12.81;61.52;101620.78;7388275;19;20338;-66
2022/05/29 06:37:09;;;;;;;0.40;0.10;;;;;;;12.85;61.62;101618.66;7390049;19;20011;-67
2022/05/29 06:39:37;;;;;;;2.75;0.20;;;;;;;12.82;61.42;101617.16;7388969;19;20010;-69
2022/05/29 06:42:05;;;;;;;2.65;0.20;;;;;;;12.83;61.47;101625.94;7389679;19;20015;-68
2022/05/29 06:44:32;;;;;;;2.97;0.20;;;;;;;12.89;61.43;101622.69;7388758;19;20014;-67
2022/05/29 06:47:03;;;;;;;1.20;0.10;;;;;;;12.90;60.98;101611.13;7387147;19;20021;-67
2022/05/29 06:49:31;;;;;;;2.78;0.15;;;;;;;12.94;61.06;101607.25;7388577;19;20011;-67
2022/05/29 06:51:58;;;;;;;1.60;0.10;;;;;;;12.93;61.11;101605.56;7390644;19;20013;-69
2022/05/29 06:54:25;;;;;;;2.05;0.20;;;;;;;12.86;60.97;101602.69;7388562;19;20023;-68
2022/05/29 06:56:52;;;;;;;5.68;0.20;;;;;;;12.85;61.29;101593.09;7389145;19;20353;-67
2022/05/29 06:59:20;;;;;;;2.20;0.22;;;;;;;12.84;61.42;101598.53;7389624;19;20082;-67
2022/05/29 07:07:28;;;;;;;0.90;0.10;;;;;;;12.82;61.31;101595.22;7386562;19;20017;-67
2022/05/29 07:09:55;;;;;;;5.63;0.40;;;;;;;12.87;61.85;101598.22;7389749;19;20019;-67
2022/05/29 07:12:27;;;;;;;2.67;0.30;;;;;;;12.90;62.09;101602.41;7390651;19;20006;-68
2022/05/29 07:15:02;;;;;;;3.17;0.20;;;;;;;12.96;61.97;101599.13;7389036;19;20384;-66
2022/05/29 07:17:35;;;;;;;3.15;0.10;;;;;;;13.00;61.62;101601.38;7390439;19;20074;-68
2022/05/29 07:20:04;;;;;;;3.00;0.40;;;;;;;13.00;61.76;101595.25;7394190;19;20011;-68
2022/05/29 07:22:32;;;;;;;3.17;0.38;;;;;;;13.05;64.48;101588.53;7393271;19;20682;-67
2022/05/29 07:24:59;;;;;;;2.20;0.10;;;;;;;12.95;61.93;101600.16;7395127;19;20030;-67
2022/05/29 07:27:26;;;;;;;2.22;0.20;;;;;;;12.97;62.59;101596.34;7396599;19;20034;-66
2022/05/29 07:29:53;;;;;;;1.80;0.20;;;;;;;12.93;61.80;101586.25;7391833;19;20015;-69
2022/05/29 07:32:20;;;;;;;1.55;0.20;;;;;;;12.92;62.12;101589.84;7394119;19;20014;-66
2022/05/29 07:34:47;;;;;;;3.70;0.17;;;;;;;12.96;61.65;101588.56;7393649;19;20015;-67
2022/05/29 07:37:16;;;;;;;3.40;0.20;;;;;;;12.98;61.60;101592.75;7394664;19;20018;-68
2022/05/29 07:39:46;;;;;;;3.53;0.32;;;;;;;13.06;61.78;101597.25;7396076;19;20021;-69
2022/05/29 07:45:02;;;;;;;2.03;0.20;;;;;;;13.33;61.07;101589.31;7392927;19;20021;-67
2022/05/29 07:47:36;;;;;;;5.80;0.32;;;;;;;13.32;60.88;101592.94;7394053;19;20015;-68
2022/05/29 07:50:04;;;;;;;2.90;0.52;;;;;;;13.32;61.75;101585.00;7393980;19;20010;-68
2022/05/29 07:52:31;;;;;;;1.75;0.20;;;;;;;13.35;62.42;101584.72;7396773;19;20013;-67
2022/05/29 07:54:58;;;;;;;5.90;1.65;;;;;;;13.44;61.13;101582.97;7395300;19;20007;-67
2022/05/29 07:57:26;;;;;;;0.70;0.10;;;;;;;13.48;60.32;101584.31;7395701;19;20115;-67
2022/05/29 07:59:53;;;;;;;2.58;0.22;;;;;;;13.47;60.55;101582.66;7393778;19;20014;-65
2022/05/29 08:02:20;;;;;;;1.23;0.20;;;;;;;13.48;61.28;101586.94;7391969;19;20014;-69
2022/05/29 08:04:47;;;;;;;5.03;0.50;;;;;;;13.47;60.65;101586.13;7393001;19;20011;-67
2022/05/29 08:07:17;;;;;;;1.20;0.20;;;;;;;13.51;60.79;101581.38;7393540;19;20015;-67
2022/05/29 08:09:44;;;;;;;2.20;0.20;;;;;;;13.44;61.01;101588.25;7392996;19;20010;-66
2022/05/29 08:12:11;;;;;;;3.78;0.20;;;;;;;13.40;61.59;101592.19;7392053;19;20479;-67
2022/05/29 08:14:38;;;;;;;5.25;0.30;;;;;;;13.35;61.81;101583.88;7395049;19;20372;-68
2022/05/29 08:17:04;;;;;;;2.00;0.17;;;;;;;13.32;62.13;101587.66;7394787;19;20102;-67
2022/05/29 08:19:34;;;;;;;2.17;0.20;;;;;;;13.24;61.87;101580.50;7393221;19;20018;-69
2022/05/29 08:22:01;;;;;;;1.67;0.20;;;;;;;13.17;61.19;101568.84;7394031;19;20019;-68
2022/05/29 08:33:20;;;;;;;3.03;0.30;;;;;;;13.27;61.97;101569.59;7392522;19;20014;-69
2022/05/29 08:35:54;;;;;;;1.15;0.10;;;;;;;13.39;60.70;101569.38;7393833;19;20010;-67
2022/05/29 08:38:30;;;;;;;3.47;0.20;;;;;;;13.45;60.63;101564.31;7392398;19;20017;-68
2022/05/29 08:41:02;;;;;;;1.75;0.20;;;;;;;13.47;60.34;101562.31;7394826;19;20006;-67
2022/05/29 08:43:34;;;;;;;;;;;;;;;13.50;59.76;101554.09;7393127;19;20106;-67
2022/05/29 08:46:15;;;;;;;0.88;0.10;;;;;;;13.46;58.95;101557.22;7393522;19;19922;-67
2022/05/29 08:48:44;;;;;;;3.63;0.20;;;;;;;13.41;59.42;101556.84;7394296;19;20006;-68
2022/05/29 08:51:25;;;;;;;2.92;0.30;;;;;;;13.45;59.26;101548.44;7392035;19;20006;-67
2022/05/29 08:54:27;;;;;;;1.92;0.30;;;;;;;13.52;59.95;101533.63;7393840;19;20017;-67
2022/05/29 08:57:12;;;;;;;1.73;0.10;;;;;;;13.60;60.01;101533.69;7388562;19;20021;-68
2022/05/29 08:59:44;;;;;;;1.10;0.10;;;;;;;13.74;58.25;101531.44;7391551;19;20046;-68
2022/05/29 09:02:34;;;;;;;1.63;0.10;;;;;;;13.82;58.35;101532.31;7390956;19;20010;-67
2022/05/29 09:05:33;;;;;;;3.88;1.05;;;;;;;13.97;56.60;101527.28;7385901;19;20109;-69
2022/05/29 09:08:05;;;;;;;3.83;0.73;;;;;;;14.04;56.89;101525.66;7390583;19;20017;-68
2022/05/29 09:10:32;;;;;;;2.50;0.20;;;;;;;14.21;56.38;101518.63;7392588;19;20023;-69
2022/05/29 09:13:03;;;;;;;4.82;0.10;;;;;;;14.37;54.92;101514.28;7392018;19;20010;-69
2022/05/29 09:15:37;;;;;;;0.40;0.10;;;;;;;14.52;55.77;101523.25;7391218;19;20036;-68
2022/05/29 09:18:32;;;;;;;2.72;0.20;;;;;;;14.71;56.53;101519.50;7391635;19;20006;-67
2022/05/29 09:21:23;;;;;;;3.00;0.10;;;;;;;14.92;54.02;101519.03;7391821;19;20007;-67
2022/05/29 09:24:05;;;;;;;2.08;0.10;;;;;;;14.96;54.64;101510.59;7388987;19;20006;-69
2022/05/29 09:26:37;;;;;;;2.10;0.10;;;;;;;15.08;53.91;101512.91;7392148;19;20014;-67
2022/05/29 09:29:05;;;;;;;3.97;0.20;;;;;;;15.17;54.18;101511.91;7390582;19;20010;-68
2022/05/29 09:31:33;;;;;;;1.75;0.20;;;;;;;15.11;54.36;101507.28;7392662;19;20028;-70
2022/05/29 09:34:08;;;;;;;1.40;0.10;;;;;;;15.04;54.54;101500.97;7391412;19;20003;-66
2022/05/29 09:36:37;;;;;;;1.13;0.10;;;;;;;15.02;53.92;101502.97;7391755;19;20024;-66
2022/05/29 09:39:15;;;;;;;0.52;0.10;;;;;;;15.01;53.91;101496.84;7391906;19;20014;-68
2022/05/29 09:42:04;;;;;;;0.38;0.10;;;;;;;15.11;53.03;101510.75;7389872;19;20021;-68
2022/05/29 09:44:37;;;;;;;0.68;0.10;;;;;;;15.02;52.81;101495.84;7390401;19;20028;-68
2022/05/29 09:50:11;;;;;;;4.18;1.17;;;;;;;14.94;51.15;101488.69;7391713;19;20472;-67
2022/05/29 09:52:43;;;;;;;0.98;0.10;;;;;;;14.79;52.42;101489.50;7387773;19;20014;-67
2022/05/29 09:55:34;;;;;;;3.10;0.10;;;;;;;14.77;52.60;101494.16;7390061;19;20062;-67
2022/05/29 09:58:04;;;;;;;3.38;0.47;;;;;;;14.70;52.20;101482.56;7387978;19;20050;-70
2022/05/29 10:00:42;;;;;;;1.52;0.20;;;;;;;14.67;52.62;101488.19;7389301;19;20086;-70
2022/05/29 10:03:33;;;;;;;1.65;0.10;;;;;;;14.73;52.74;101484.91;7389698;19;20021;-68
2022/05/29 10:06:41;;;;;;;0.45;0.10;;;;;;;14.77;52.42;101475.63;7390060;19;20025;-69
2022/05/29 10:09:17;;;;;;;1.20;0.10;;;;;;;14.84;51.93;101481.91;7389766;19;20104;-66
2022/05/29 10:12:21;;;;;;;0.10;0.00;;;;;;;14.80;51.62;101473.47;7389562;19;20016;-68
2022/05/29 10:14:47;;;;;;;1.65;0.10;;;;;;;14.81;51.85;101474.28;7389218;19;20015;-68
2022/05/29 10:17:36;;;;;;;0.90;0.00;;;;;;;14.88;52.84;101477.94;7389836;19;20701;-68
2022/05/29 10:20:35;;;;;;;1.48;0.10;;;;;;;15.09;51.42;101477.44;7388011;19;20031;-67
2022/05/29 10:23:34;;;;;;;1.98;0.10;;;;;;;15.28;50.67;101480.59;7387425;19;20014;-68
2022/05/29 10:26:21;;;;;;;5.28;0.10;;;;;;;15.40;50.36;101473.94;7388156;19;20010;-67
2022/05/29 10:28:49;;;;;;;1.27;0.00;;;;;;;15.52;50.05;101476.28;7387313;19;20475;-67
2022/05/29 10:31:24;;;;;;;0.98;0.00;;;;;;;15.55;49.33;101479.41;7389014;19;20021;-68
2022/05/29 10:34:14;;;;;;;0.40;0.00;;;;;;;15.59;49.49;101472.78;7389102;19;20007;-66
2022/05/29 10:36:47;;;;;;;0.30;0.00;;;;;;;15.64;49.80;101477.59;7389942;19;20330;-69
2022/05/29 10:39:29;;;;;;;2.05;0.00;;;;;;;15.67;48.97;101472.75;7389786;19;20054;-70
2022/05/29 10:42:03;;;;;;;3.60;0.52;;;;;;;15.72;48.98;101469.59;7388623;19;20002;-68
2022/05/29 10:44:49;;;;;;;1.65;0.32;;;;;;;15.77;49.22;101462.78;7388886;19;20007;-68
2022/05/29 10:47:16;;;;;;;0.77;0.10;;;;;;;15.80;49.12;101465.06;7389567;19;20017;-68
2022/05/29 10:50:02;;;;;;;0.10;0.00;;;;;;;15.72;48.40;101459.81;7389555;19;20174;-67
2022/05/29 10:53:24;;;;;;;0.65;0.00;;;;;;;15.66;48.17;101462.31;7387714;19;20610;-66
2022/05/29 10:56:24;;;;;;;0.63;0.10;;;;;;;15.61;48.35;101457.50;7394496;19;20013;-66
2022/05/29 10:59:17;;;;;;;0.40;0.00;;;;;;;15.71;48.57;101457.31;7394937;19;20018;-68
2022/05/29 11:05:27;;;;;;;1.40;0.10;;;;;;;15.99;47.96;101458.56;7395348;19;19943;-67
2022/05/29 11:08:35;;;;;;;1.38;0.10;;;;;;;16.09;48.17;101442.41;7393192;19;20018;-66
2022/05/29 11:11:24;;;;;;;0.10;0.00;;;;;;;16.08;46.72;101441.59;7393504;19;20369;-65
2022/05/29 11:14:06;;;;;;;1.70;0.00;;;;;;;16.05;46.81;101441.91;7393653;19;20021;-67
2022/05/29 11:16:46;;;;;;;1.67;0.10;;;;;;;15.88;46.75;101445.66;7394954;19;20030;-67
2022/05/29 11:19:38;;;;;;;0.77;0.05;;;;;;;15.71;46.81;101434.28;7396263;19;20055;-68
2022/05/29 11:22:17;;;;;;;0.43;0.03;;;;;;;15.64;47.38;101437.78;7395052;19;20086;-67
2022/05/29 11:24:57;;;;;;;1.15;0.10;;;;;;;15.56;47.77;101440.44;7392619;19;20015;-69
2022/05/29 11:27:46;;;;;;;3.47;0.00;;;;;;;15.52;48.03;101433.84;7397803;19;20014;-68
2022/05/29 11:30:31;;;;;;;0.47;0.10;;;;;;;15.64;47.46;101432.47;7395073;19;20014;-65
2022/05/29 11:33:23;;;;;;;1.90;0.03;;;;;;;15.78;46.83;101421.16;7397571;19;20013;-66
2022/05/29 11:36:06;;;;;;;0.80;0.08;;;;;;;15.92;45.46;101414.28;7392599;19;20022;-66
2022/05/29 11:38:53;;;;;;;3.53;0.20;;;;;;;16.01;45.14;101414.06;7396724;19;20014;-67
2022/05/29 11:41:40;;;;;;;2.30;0.20;;;;;;;15.99;46.32;101413.44;7392001;19;20443;-66
2022/05/29 11:44:41;;;;;;;1.10;0.10;;;;;;;15.98;44.97;101405.63;7392848;19;20340;-69
2022/05/29 11:53:34;;;;;;;2.45;0.15;;;;;;;16.01;45.72;101406.09;7395986;19;20018;-68
2022/05/29 11:56:08;;;;;;;2.30;0.10;;;;;;;16.04;45.07;101396.97;7392240;19;20015;-71
2022/05/29 11:59:10;;;;;;;2.38;0.68;;;;;;;16.03;45.11;101390.00;7389409;19;20728;-66
2022/05/29 12:01:59;;;;;;;0.65;0.00;;;;;;;15.98;43.41;101389.69;7391972;19;20038;-66
2022/05/29 12:04:36;;;;;;;1.13;0.10;;;;;;;16.06;44.78;101382.50;7394647;19;20029;-65
2022/05/29 12:07:32;;;;;;;0.68;0.10;;;;;;;16.19;43.98;101384.59;7394750;19;20030;-68
2022/05/29 12:10:06;;;;;;;1.45;0.10;;;;;;;16.26;44.51;101380.22;7392805;19;20552;-68
2022/05/29 12:12:42;;;;;;;0.93;0.17;;;;;;;16.34;42.47;101385.50;7394700;19;20014;-67
2022/05/29 12:15:19;;;;;;;0.45;0.00;;;;;;;16.23;42.20;101385.91;7396933;19;20329;-68
2022/05/29 12:18:07;;;;;;;0.10;0.00;;;;;;;16.21;42.75;101374.63;7395607;19;20710;-66
2022/05/29 12:20:47;;;;;;;2.22;0.13;;;;;;;16.19;43.29;101369.50;7392995;19;20014;-69
2022/05/29 12:23:29;;;;;;;0.52;0.00;;;;;;;16.06;43.92;101371.91;7394153;19;20342;-65
2022/05/29 12:26:26;;;;;;;1.40;0.10;;;;;;;16.08;43.96;101387.66;7392101;19;20353;-67
2022/05/29 12:29:01;;;;;;;1.88;0.15;;;;;;;16.04;43.27;101379.22;7392901;19;20469;-69
2022/05/29 12:31:58;;;;;;;1.98;0.10;;;;;;;16.05;43.49;101374.75;7394087;19;20018;-70
2022/05/29 12:34:35;;;;;;;0.70;0.10;;;;;;;16.14;44.72;101371.84;7392548;19;20017;-67
2022/05/29 12:37:04;;;;;;;0.75;0.10;;;;;;;16.19;44.94;101366.84;7395277;19;20014;-67
2022/05/29 12:39:56;;;;;;;2.58;0.10;;;;;;;16.15;45.68;101360.22;7392615;19;20014;-68
2022/05/29 12:42:51;;;;;;;0.57;0.03;;;;;;;16.16;45.34;101369.00;7394527;19;20006;-67
2022/05/29 12:45:39;;;;;;;2.28;0.10;;;;;;;16.12;45.34;101373.84;7390798;19;20011;-68